sensor_id;sensor_type;location;lat;lon;timestamp;temperature;humidity
27619;DHT22;15039;50.830;4.730;2023-01-09T00:00:19;7.30;99.90
27619;DHT22;15039;50.830;4.730;2023-01-09T00:02:44;7.30;99.90
27619;DHT22;15039;50.830;4.730;2023-01-09T00:05:12;7.30;99.90
27619;DHT22;15039;50.830;4.730;2023-01-09T00:07:38;7.30;99.90
27619;DHT22;15039;50.830;4.730;2023-01-09T00:10:05;7.30;99.90
27619;DHT22;15039;50.830;4.730;2023-01-09T00:12:32;7.20;99.90
27619;DHT22;15039;50.830;4.730;2023-01-09T00:14:58;7.20;99.90
27619;DHT22;15039;50.830;4.730;2023-01-09T00:17:23;7.20;99.90
27619;DHT22;15039;50.830;4.730;2023-01-09T00:19:49;7.10;99.90
27619;DHT22;15039;50.830;4.730;2023-01-09T00:22:14;7.20;99.90
27619;DHT22;15039;50.830;4.730;2023-01-09T00:24:40;7.10;99.90
27619;DHT22;15039;50.830;4.730;2023-01-09T00:27:06;7.10;99.90
27619;DHT22;15039;50.830;4.730;2023-01-09T00:29:31;7.00;99.90
27619;DHT22;15039;50.830;4.730;2023-01-09T00:31:57;7.10;99.90
27619;DHT22;15039;50.830;4.730;2023-01-09T00:34:23;7.10;99.90
27619;DHT22;15039;50.830;4.730;2023-01-09T00:36:49;7.00;99.90
27619;DHT22;15039;50.830;4.730;2023-01-09T00:39:20;7.00;99.90
27619;DHT22;15039;50.830;4.730;2023-01-09T00:41:48;6.90;99.90
27619;DHT22;15039;50.830;4.730;2023-01-09T00:44:23;6.90;99.90
27619;DHT22;15039;50.830;4.730;2023-01-09T00:46:53;6.80;99.90
27619;DHT22;15039;50.830;4.730;2023-01-09T00:49:20;6.90;99.90
27619;DHT22;15039;50.830;4.730;2023-01-09T00:51:47;6.90;99.90
27619;DHT22;15039;50.830;4.730;2023-01-09T00:54:16;6.80;99.90
27619;DHT22;15039;50.830;4.730;2023-01-09T00:56:42;6.80;99.90
27619;DHT22;15039;50.830;4.730;2023-01-09T00:59:08;6.90;99.90
27619;DHT22;15039;50.830;4.730;2023-01-09T01:01:34;6.80;99.90
27619;DHT22;15039;50.830;4.730;2023-01-09T01:03:59;6.80;99.90
27619;DHT22;15039;50.830;4.730;2023-01-09T01:06:45;6.80;99.90
27619;DHT22;15039;50.830;4.730;2023-01-09T01:09:29;6.80;99.90
27619;DHT22;15039;50.830;4.730;2023-01-09T01:11:54;6.80;99.90
27619;DHT22;15039;50.830;4.730;2023-01-09T01:14:20;6.70;99.90
27619;DHT22;15039;50.830;4.730;2023-01-09T01:16:45;6.70;99.90
27619;DHT22;15039;50.830;4.730;2023-01-09T01:19:11;6.70;99.90
27619;DHT22;15039;50.830;4.730;2023-01-09T01:21:37;6.70;99.90
27619;DHT22;15039;50.830;4.730;2023-01-09T01:24:03;6.70;99.90
27619;DHT22;15039;50.830;4.730;2023-01-09T01:26:28;6.60;99.90
27619;DHT22;15039;50.830;4.730;2023-01-09T01:28:54;6.60;99.90
27619;DHT22;15039;50.830;4.730;2023-01-09T01:31:20;6.60;99.90
27619;DHT22;15039;50.830;4.730;2023-01-09T01:33:45;6.60;99.90
27619;DHT22;15039;50.830;4.730;2023-01-09T01:36:11;6.60;99.90
27619;DHT22;15039;50.830;4.730;2023-01-09T01:38:37;6.60;99.90
27619;DHT22;15039;50.830;4.730;2023-01-09T01:41:03;6.60;99.90
27619;DHT22;15039;50.830;4.730;2023-01-09T01:43:48;6.60;99.90
27619;DHT22;15039;50.830;4.730;2023-01-09T01:46:16;6.60;99.90
27619;DHT22;15039;50.830;4.730;2023-01-09T01:48:42;6.70;99.90
27619;DHT22;15039;50.830;4.730;2023-01-09T01:51:08;6.60;99.90
27619;DHT22;15039;50.830;4.730;2023-01-09T01:53:42;6.60;99.90
27619;DHT22;15039;50.830;4.730;2023-01-09T02:01:23;6.50;99.90
27619;DHT22;15039;50.830;4.730;2023-01-09T02:03:51;6.50;99.90
27619;DHT22;15039;50.830;4.730;2023-01-09T02:06:17;6.50;99.90
27619;DHT22;15039;50.830;4.730;2023-01-09T02:08:43;6.40;99.90
27619;DHT22;15039;50.830;4.730;2023-01-09T02:11:08;6.50;99.90
27619;DHT22;15039;50.830;4.730;2023-01-09T02:13:37;6.40;99.90
27619;DHT22;15039;50.830;4.730;2023-01-09T02:33:18;6.50;99.90
27619;DHT22;15039;50.830;4.730;2023-01-09T02:43:35;6.70;99.90
27619;DHT22;15039;50.830;4.730;2023-01-09T02:46:00;6.70;99.90
27619;DHT22;15039;50.830;4.730;2023-01-09T02:48:26;6.70;99.90
27619;DHT22;15039;50.830;4.730;2023-01-09T02:57:20;6.80;99.90
27619;DHT22;15039;50.830;4.730;2023-01-09T03:00:03;6.90;99.90
27619;DHT22;15039;50.830;4.730;2023-01-09T03:02:39;6.90;99.90
27619;DHT22;15039;50.830;4.730;2023-01-09T03:05:23;6.90;99.90
27619;DHT22;15039;50.830;4.730;2023-01-09T03:08:14;7.00;99.90
27619;DHT22;15039;50.830;4.730;2023-01-09T03:10:58;7.10;99.90
27619;DHT22;15039;50.830;4.730;2023-01-09T03:13:28;7.10;99.90
27619;DHT22;15039;50.830;4.730;2023-01-09T03:15:56;7.10;99.90
27619;DHT22;15039;50.830;4.730;2023-01-09T03:18:26;7.20;99.90
27619;DHT22;15039;50.830;4.730;2023-01-09T03:20:53;7.10;99.90
27619;DHT22;15039;50.830;4.730;2023-01-09T03:23:19;7.20;99.90
27619;DHT22;15039;50.830;4.730;2023-01-09T03:25:44;7.20;99.90
27619;DHT22;15039;50.830;4.730;2023-01-09T03:28:27;7.20;99.90
27619;DHT22;15039;50.830;4.730;2023-01-09T03:30:53;7.30;99.90
27619;DHT22;15039;50.830;4.730;2023-01-09T03:33:19;7.20;99.90
27619;DHT22;15039;50.830;4.730;2023-01-09T03:35:45;7.20;99.90
27619;DHT22;15039;50.830;4.730;2023-01-09T03:38:11;7.30;99.90
27619;DHT22;15039;50.830;4.730;2023-01-09T03:40:36;7.30;99.90
27619;DHT22;15039;50.830;4.730;2023-01-09T03:43:02;7.20;99.90
27619;DHT22;15039;50.830;4.730;2023-01-09T03:45:28;7.30;99.90
27619;DHT22;15039;50.830;4.730;2023-01-09T03:47:53;7.30;99.90
27619;DHT22;15039;50.830;4.730;2023-01-09T03:50:19;7.40;99.90
27619;DHT22;15039;50.830;4.730;2023-01-09T03:52:44;7.40;99.90
27619;DHT22;15039;50.830;4.730;2023-01-09T03:55:10;7.40;99.90
27619;DHT22;15039;50.830;4.730;2023-01-09T03:57:36;7.40;99.90
27619;DHT22;15039;50.830;4.730;2023-01-09T04:00:02;7.40;99.90
27619;DHT22;15039;50.830;4.730;2023-01-09T04:02:28;7.40;99.90
27619;DHT22;15039;50.830;4.730;2023-01-09T04:04:54;7.40;99.90
27619;DHT22;15039;50.830;4.730;2023-01-09T04:07:19;7.40;99.90
27619;DHT22;15039;50.830;4.730;2023-01-09T04:09:45;7.40;99.90
27619;DHT22;15039;50.830;4.730;2023-01-09T04:12:11;7.50;99.90
27619;DHT22;15039;50.830;4.730;2023-01-09T04:14:36;7.50;99.90
27619;DHT22;15039;50.830;4.730;2023-01-09T04:17:02;7.50;99.90
27619;DHT22;15039;50.830;4.730;2023-01-09T04:19:27;7.50;99.90
27619;DHT22;15039;50.830;4.730;2023-01-09T04:21:53;7.60;99.90
27619;DHT22;15039;50.830;4.730;2023-01-09T04:24:19;7.60;99.90
27619;DHT22;15039;50.830;4.730;2023-01-09T04:26:44;7.60;99.90
27619;DHT22;15039;50.830;4.730;2023-01-09T04:29:10;7.60;99.90
27619;DHT22;15039;50.830;4.730;2023-01-09T04:31:35;7.60;99.90
27619;DHT22;15039;50.830;4.730;2023-01-09T04:34:01;7.60;99.90
27619;DHT22;15039;50.830;4.730;2023-01-09T04:36:27;7.60;99.90
27619;DHT22;15039;50.830;4.730;2023-01-09T04:38:52;7.70;99.90
27619;DHT22;15039;50.830;4.730;2023-01-09T04:41:18;7.70;99.90
27619;DHT22;15039;50.830;4.730;2023-01-09T04:44:02;7.70;99.90
27619;DHT22;15039;50.830;4.730;2023-01-09T04:46:27;7.80;99.90
27619;DHT22;15039;50.830;4.730;2023-01-09T04:48:53;7.80;99.90
27619;DHT22;15039;50.830;4.730;2023-01-09T04:51:19;7.90;99.90
27619;DHT22;15039;50.830;4.730;2023-01-09T04:53:44;8.00;99.90
27619;DHT22;15039;50.830;4.730;2023-01-09T04:56:10;7.90;99.90
27619;DHT22;15039;50.830;4.730;2023-01-09T04:58:35;7.90;99.90
27619;DHT22;15039;50.830;4.730;2023-01-09T05:01:01;7.90;99.90
27619;DHT22;15039;50.830;4.730;2023-01-09T05:03:27;7.80;99.90
27619;DHT22;15039;50.830;4.730;2023-01-09T05:05:52;7.80;99.90
27619;DHT22;15039;50.830;4.730;2023-01-09T05:08:18;7.90;99.90
27619;DHT22;15039;50.830;4.730;2023-01-09T05:10:43;7.90;99.90
27619;DHT22;15039;50.830;4.730;2023-01-09T05:13:09;7.90;99.90
27619;DHT22;15039;50.830;4.730;2023-01-09T05:15:34;7.90;99.90
27619;DHT22;15039;50.830;4.730;2023-01-09T05:18:00;7.90;99.90
27619;DHT22;15039;50.830;4.730;2023-01-09T05:20:25;7.90;99.90
27619;DHT22;15039;50.830;4.730;2023-01-09T05:22:51;8.00;99.90
27619;DHT22;15039;50.830;4.730;2023-01-09T05:25:17;8.00;99.90
27619;DHT22;15039;50.830;4.730;2023-01-09T05:27:42;7.90;99.90
27619;DHT22;15039;50.830;4.730;2023-01-09T05:30:11;7.90;99.90
27619;DHT22;15039;50.830;4.730;2023-01-09T05:32:37;7.90;99.90
27619;DHT22;15039;50.830;4.730;2023-01-09T05:35:03;7.90;99.90
27619;DHT22;15039;50.830;4.730;2023-01-09T05:37:28;7.90;99.90
27619;DHT22;15039;50.830;4.730;2023-01-09T05:39:54;8.00;99.90
27619;DHT22;15039;50.830;4.730;2023-01-09T05:42:20;7.90;99.90
27619;DHT22;15039;50.830;4.730;2023-01-09T05:44:45;7.90;99.90
27619;DHT22;15039;50.830;4.730;2023-01-09T05:47:11;8.00;99.90
27619;DHT22;15039;50.830;4.730;2023-01-09T05:49:37;8.00;99.90
27619;DHT22;15039;50.830;4.730;2023-01-09T05:52:02;8.00;99.90
27619;DHT22;15039;50.830;4.730;2023-01-09T05:54:29;8.00;99.90
27619;DHT22;15039;50.830;4.730;2023-01-09T05:56:55;8.00;99.90
27619;DHT22;15039;50.830;4.730;2023-01-09T05:59:20;8.10;99.90
27619;DHT22;15039;50.830;4.730;2023-01-09T06:01:46;8.10;99.90
27619;DHT22;15039;50.830;4.730;2023-01-09T06:04:12;8.10;99.90
27619;DHT22;15039;50.830;4.730;2023-01-09T06:06:37;8.10;99.90
27619;DHT22;15039;50.830;4.730;2023-01-09T06:09:05;8.10;99.90
27619;DHT22;15039;50.830;4.730;2023-01-09T06:11:31;8.10;99.90
27619;DHT22;15039;50.830;4.730;2023-01-09T06:14:00;8.10;99.90
27619;DHT22;15039;50.830;4.730;2023-01-09T06:16:26;8.10;99.90
27619;DHT22;15039;50.830;4.730;2023-01-09T06:18:52;8.10;99.90
27619;DHT22;15039;50.830;4.730;2023-01-09T06:21:17;8.10;99.90
27619;DHT22;15039;50.830;4.730;2023-01-09T06:23:43;8.10;99.90
27619;DHT22;15039;50.830;4.730;2023-01-09T06:26:09;8.10;99.90
27619;DHT22;15039;50.830;4.730;2023-01-09T06:28:34;8.10;99.90
27619;DHT22;15039;50.830;4.730;2023-01-09T06:31:00;8.20;99.90
27619;DHT22;15039;50.830;4.730;2023-01-09T06:33:26;8.10;99.90
27619;DHT22;15039;50.830;4.730;2023-01-09T06:35:51;8.20;99.90
27619;DHT22;15039;50.830;4.730;2023-01-09T06:38:17;8.20;99.90
27619;DHT22;15039;50.830;4.730;2023-01-09T06:40:43;8.20;99.90
27619;DHT22;15039;50.830;4.730;2023-01-09T06:43:08;8.20;99.90
27619;DHT22;15039;50.830;4.730;2023-01-09T06:45:34;8.20;99.90
27619;DHT22;15039;50.830;4.730;2023-01-09T06:48:00;8.20;99.90
27619;DHT22;15039;50.830;4.730;2023-01-09T06:50:25;8.20;99.90
27619;DHT22;15039;50.830;4.730;2023-01-09T06:52:51;8.20;99.90
27619;DHT22;15039;50.830;4.730;2023-01-09T06:55:16;8.20;99.90
27619;DHT22;15039;50.830;4.730;2023-01-09T06:57:42;8.10;99.90
27619;DHT22;15039;50.830;4.730;2023-01-09T07:00:08;8.20;99.90
27619;DHT22;15039;50.830;4.730;2023-01-09T07:02:34;8.20;99.90
27619;DHT22;15039;50.830;4.730;2023-01-09T07:05:00;8.30;99.90
27619;DHT22;15039;50.830;4.730;2023-01-09T07:07:25;8.20;99.90
27619;DHT22;15039;50.830;4.730;2023-01-09T07:09:51;8.10;99.90
27619;DHT22;15039;50.830;4.730;2023-01-09T07:12:17;8.10;99.90
27619;DHT22;15039;50.830;4.730;2023-01-09T07:14:42;8.10;99.90
27619;DHT22;15039;50.830;4.730;2023-01-09T07:17:11;8.10;99.90
27619;DHT22;15039;50.830;4.730;2023-01-09T07:19:37;8.10;99.90
27619;DHT22;15039;50.830;4.730;2023-01-09T07:22:03;8.20;99.90
27619;DHT22;15039;50.830;4.730;2023-01-09T07:24:28;8.10;99.90
27619;DHT22;15039;50.830;4.730;2023-01-09T07:26:54;8.20;99.90
27619;DHT22;15039;50.830;4.730;2023-01-09T07:29:19;8.10;99.90
27619;DHT22;15039;50.830;4.730;2023-01-09T07:31:45;8.20;99.90
27619;DHT22;15039;50.830;4.730;2023-01-09T07:34:11;8.10;99.90
27619;DHT22;15039;50.830;4.730;2023-01-09T07:36:37;8.10;99.90
27619;DHT22;15039;50.830;4.730;2023-01-09T07:39:02;8.00;99.90
27619;DHT22;15039;50.830;4.730;2023-01-09T07:41:28;8.10;99.90
27619;DHT22;15039;50.830;4.730;2023-01-09T07:43:54;8.10;99.90
27619;DHT22;15039;50.830;4.730;2023-01-09T07:46:20;8.10;99.90
27619;DHT22;15039;50.830;4.730;2023-01-09T07:48:46;8.10;99.90
27619;DHT22;15039;50.830;4.730;2023-01-09T07:51:11;8.10;99.90
27619;DHT22;15039;50.830;4.730;2023-01-09T07:53:37;8.00;99.90
27619;DHT22;15039;50.830;4.730;2023-01-09T07:56:03;8.10;99.90
27619;DHT22;15039;50.830;4.730;2023-01-09T07:58:29;8.10;99.90
27619;DHT22;15039;50.830;4.730;2023-01-09T08:00:55;8.20;99.90
27619;DHT22;15039;50.830;4.730;2023-01-09T08:03:20;8.20;99.90
27619;DHT22;15039;50.830;4.730;2023-01-09T08:05:46;8.20;99.90
27619;DHT22;15039;50.830;4.730;2023-01-09T08:08:11;8.20;99.90
27619;DHT22;15039;50.830;4.730;2023-01-09T08:10:39;8.30;99.90
27619;DHT22;15039;50.830;4.730;2023-01-09T08:13:05;8.30;99.90
27619;DHT22;15039;50.830;4.730;2023-01-09T08:15:30;8.40;99.90
27619;DHT22;15039;50.830;4.730;2023-01-09T08:17:57;8.40;99.90
27619;DHT22;15039;50.830;4.730;2023-01-09T08:20:23;8.40;99.90
27619;DHT22;15039;50.830;4.730;2023-01-09T08:22:49;8.30;99.90
27619;DHT22;15039;50.830;4.730;2023-01-09T08:25:15;8.30;99.90
27619;DHT22;15039;50.830;4.730;2023-01-09T08:27:41;8.20;99.90
27619;DHT22;15039;50.830;4.730;2023-01-09T08:30:07;8.10;99.90
27619;DHT22;15039;50.830;4.730;2023-01-09T08:32:35;8.20;99.90
27619;DHT22;15039;50.830;4.730;2023-01-09T08:35:01;8.20;99.90
27619;DHT22;15039;50.830;4.730;2023-01-09T08:37:27;8.20;99.90
27619;DHT22;15039;50.830;4.730;2023-01-09T08:39:53;8.20;99.90
27619;DHT22;15039;50.830;4.730;2023-01-09T08:42:19;8.20;99.90
27619;DHT22;15039;50.830;4.730;2023-01-09T08:45:03;8.20;99.90
27619;DHT22;15039;50.830;4.730;2023-01-09T08:47:48;8.10;99.90
27619;DHT22;15039;50.830;4.730;2023-01-09T08:50:14;8.10;99.90
27619;DHT22;15039;50.830;4.730;2023-01-09T08:52:39;8.10;99.90
27619;DHT22;15039;50.830;4.730;2023-01-09T08:55:05;8.20;99.90
27619;DHT22;15039;50.830;4.730;2023-01-09T08:57:31;8.10;99.90
27619;DHT22;15039;50.830;4.730;2023-01-09T08:59:56;8.10;99.90
27619;DHT22;15039;50.830;4.730;2023-01-09T09:02:22;8.00;99.90
27619;DHT22;15039;50.830;4.730;2023-01-09T09:04:48;8.00;99.90
27619;DHT22;15039;50.830;4.730;2023-01-09T09:07:17;8.10;99.90
27619;DHT22;15039;50.830;4.730;2023-01-09T09:09:53;8.10;99.90
27619;DHT22;15039;50.830;4.730;2023-01-09T09:12:20;8.10;99.90
27619;DHT22;15039;50.830;4.730;2023-01-09T09:14:45;8.10;99.90
27619;DHT22;15039;50.830;4.730;2023-01-09T09:17:30;8.00;99.90
27619;DHT22;15039;50.830;4.730;2023-01-09T09:19:57;8.10;99.90
27619;DHT22;15039;50.830;4.730;2023-01-09T09:22:23;8.10;99.90
27619;DHT22;15039;50.830;4.730;2023-01-09T09:24:48;8.00;99.90
27619;DHT22;15039;50.830;4.730;2023-01-09T09:27:14;8.00;99.90
27619;DHT22;15039;50.830;4.730;2023-01-09T09:29:40;8.00;99.90
27619;DHT22;15039;50.830;4.730;2023-01-09T09:32:05;8.00;99.90
27619;DHT22;15039;50.830;4.730;2023-01-09T09:34:31;8.00;99.90
27619;DHT22;15039;50.830;4.730;2023-01-09T09:36:56;8.10;99.90
27619;DHT22;15039;50.830;4.730;2023-01-09T09:39:22;8.10;99.90
27619;DHT22;15039;50.830;4.730;2023-01-09T09:47:39;8.00;99.90
27619;DHT22;15039;50.830;4.730;2023-01-09T09:55:32;8.00;99.90
27619;DHT22;15039;50.830;4.730;2023-01-09T09:58:01;7.90;99.90
27619;DHT22;15039;50.830;4.730;2023-01-09T10:00:29;7.90;99.90
27619;DHT22;15039;50.830;4.730;2023-01-09T10:03:09;7.90;99.90
27619;DHT22;15039;50.830;4.730;2023-01-09T10:05:41;7.90;99.90
27619;DHT22;15039;50.830;4.730;2023-01-09T10:08:18;8.00;99.90
27619;DHT22;15039;50.830;4.730;2023-01-09T10:10:51;8.00;99.90
27619;DHT22;15039;50.830;4.730;2023-01-09T10:13:18;8.00;99.90
27619;DHT22;15039;50.830;4.730;2023-01-09T10:21:43;7.80;99.90
27619;DHT22;15039;50.830;4.730;2023-01-09T10:27:28;7.70;99.90
27619;DHT22;15039;50.830;4.730;2023-01-09T10:33:56;7.80;99.90
27619;DHT22;15039;50.830;4.730;2023-01-09T10:38:24;7.80;99.90
27619;DHT22;15039;50.830;4.730;2023-01-09T10:40:59;7.80;99.90
27619;DHT22;15039;50.830;4.730;2023-01-09T10:43:38;7.90;99.90
27619;DHT22;15039;50.830;4.730;2023-01-09T10:46:13;8.00;99.90
27619;DHT22;15039;50.830;4.730;2023-01-09T10:48:44;8.10;99.90
27619;DHT22;15039;50.830;4.730;2023-01-09T10:51:31;8.10;99.90
27619;DHT22;15039;50.830;4.730;2023-01-09T10:53:59;8.10;99.90
27619;DHT22;15039;50.830;4.730;2023-01-09T10:56:27;8.10;99.90
27619;DHT22;15039;50.830;4.730;2023-01-09T10:58:54;8.20;99.90
27619;DHT22;15039;50.830;4.730;2023-01-09T11:01:26;8.20;99.90
27619;DHT22;15039;50.830;4.730;2023-01-09T11:03:53;8.30;99.90
27619;DHT22;15039;50.830;4.730;2023-01-09T11:06:35;8.30;99.90
27619;DHT22;15039;50.830;4.730;2023-01-09T11:09:02;8.30;99.90
27619;DHT22;15039;50.830;4.730;2023-01-09T11:11:34;8.30;99.90
27619;DHT22;15039;50.830;4.730;2023-01-09T11:14:25;8.30;99.90
27619;DHT22;15039;50.830;4.730;2023-01-09T11:17:00;8.30;99.90
27619;DHT22;15039;50.830;4.730;2023-01-09T11:19:28;8.30;99.90
27619;DHT22;15039;50.830;4.730;2023-01-09T11:22:15;8.30;99.90
27619;DHT22;15039;50.830;4.730;2023-01-09T11:24:41;8.30;99.90
27619;DHT22;15039;50.830;4.730;2023-01-09T11:29:39;8.20;99.90
27619;DHT22;15039;50.830;4.730;2023-01-09T11:32:15;8.30;99.90
27619;DHT22;15039;50.830;4.730;2023-01-09T11:34:44;8.30;99.90
27619;DHT22;15039;50.830;4.730;2023-01-09T11:37:12;8.30;99.90
27619;DHT22;15039;50.830;4.730;2023-01-09T11:39:39;8.30;99.90
27619;DHT22;15039;50.830;4.730;2023-01-09T11:42:22;8.30;99.90
27619;DHT22;15039;50.830;4.730;2023-01-09T11:45:15;8.40;99.90
27619;DHT22;15039;50.830;4.730;2023-01-09T11:47:42;8.40;99.90
27619;DHT22;15039;50.830;4.730;2023-01-09T11:50:21;8.30;99.90
27619;DHT22;15039;50.830;4.730;2023-01-09T11:55:40;8.30;99.90
27619;DHT22;15039;50.830;4.730;2023-01-09T11:58:15;8.30;99.90
27619;DHT22;15039;50.830;4.730;2023-01-09T12:04:08;8.20;99.90
27619;DHT22;15039;50.830;4.730;2023-01-09T12:09:27;8.20;99.90
27619;DHT22;15039;50.830;4.730;2023-01-09T12:15:19;8.00;99.90
27619;DHT22;15039;50.830;4.730;2023-01-09T12:27:02;8.10;99.90
27619;DHT22;15039;50.830;4.730;2023-01-09T12:32:51;8.40;99.90
27619;DHT22;15039;50.830;4.730;2023-01-09T12:35:52;8.40;99.90
27619;DHT22;15039;50.830;4.730;2023-01-09T12:41:27;8.50;99.90
27619;DHT22;15039;50.830;4.730;2023-01-09T12:46:24;8.50;99.90
27619;DHT22;15039;50.830;4.730;2023-01-09T12:51:47;8.40;99.90
27619;DHT22;15039;50.830;4.730;2023-01-09T12:54:44;8.50;99.90
27619;DHT22;15039;50.830;4.730;2023-01-09T12:57:21;8.60;99.90
27619;DHT22;15039;50.830;4.730;2023-01-09T12:59:58;8.60;99.90
27619;DHT22;15039;50.830;4.730;2023-01-09T13:02:26;8.60;99.90
27619;DHT22;15039;50.830;4.730;2023-01-09T13:07:39;8.70;99.90
27619;DHT22;15039;50.830;4.730;2023-01-09T13:10:18;8.90;99.90
27619;DHT22;15039;50.830;4.730;2023-01-09T13:12:46;8.80;99.90
27619;DHT22;15039;50.830;4.730;2023-01-09T13:15:29;8.90;99.90
27619;DHT22;15039;50.830;4.730;2023-01-09T13:18:23;9.00;99.90
27619;DHT22;15039;50.830;4.730;2023-01-09T13:20:48;9.00;99.90
27619;DHT22;15039;50.830;4.730;2023-01-09T13:23:26;9.10;99.90
27619;DHT22;15039;50.830;4.730;2023-01-09T13:25:54;9.20;99.90
27619;DHT22;15039;50.830;4.730;2023-01-09T13:28:30;9.30;99.90
27619;DHT22;15039;50.830;4.730;2023-01-09T13:34:04;9.30;99.90
27619;DHT22;15039;50.830;4.730;2023-01-09T13:36:37;9.30;99.90
27619;DHT22;15039;50.830;4.730;2023-01-09T13:39:04;9.20;99.90
27619;DHT22;15039;50.830;4.730;2023-01-09T13:41:31;9.20;99.90
27619;DHT22;15039;50.830;4.730;2023-01-09T13:46:47;9.30;99.90
27619;DHT22;15039;50.830;4.730;2023-01-09T13:57:34;9.20;99.90
27619;DHT22;15039;50.830;4.730;2023-01-09T14:08:05;9.00;99.90
27619;DHT22;15039;50.830;4.730;2023-01-09T14:10:38;9.00;99.90
27619;DHT22;15039;50.830;4.730;2023-01-09T14:13:17;9.00;99.90
27619;DHT22;15039;50.830;4.730;2023-01-09T14:15:45;9.10;99.90
27619;DHT22;15039;50.830;4.730;2023-01-09T14:18:15;9.10;99.90
27619;DHT22;15039;50.830;4.730;2023-01-09T14:23:32;9.10;99.90
27619;DHT22;15039;50.830;4.730;2023-01-09T14:25:59;9.00;99.90
27619;DHT22;15039;50.830;4.730;2023-01-09T14:28:26;9.10;99.90
27619;DHT22;15039;50.830;4.730;2023-01-09T14:36:03;9.20;99.90
27619;DHT22;15039;50.830;4.730;2023-01-09T14:41:26;9.10;99.90
27619;DHT22;15039;50.830;4.730;2023-01-09T14:47:10;9.00;99.90
27619;DHT22;15039;50.830;4.730;2023-01-09T14:49:57;8.90;99.90
27619;DHT22;15039;50.830;4.730;2023-01-09T14:52:37;8.80;99.90
27619;DHT22;15039;50.830;4.730;2023-01-09T14:55:11;8.70;99.90
27619;DHT22;15039;50.830;4.730;2023-01-09T14:57:39;8.60;99.90
27619;DHT22;15039;50.830;4.730;2023-01-09T15:00:17;8.60;99.90
27619;DHT22;15039;50.830;4.730;2023-01-09T15:02:44;8.60;99.90
27619;DHT22;15039;50.830;4.730;2023-01-09T15:05:16;8.50;99.90
27619;DHT22;15039;50.830;4.730;2023-01-09T15:07:54;8.60;99.90
27619;DHT22;15039;50.830;4.730;2023-01-09T15:10:32;8.60;99.90
27619;DHT22;15039;50.830;4.730;2023-01-09T15:13:00;8.50;99.90
27619;DHT22;15039;50.830;4.730;2023-01-09T15:15:27;8.50;99.90
27619;DHT22;15039;50.830;4.730;2023-01-09T15:18:02;8.50;99.90
27619;DHT22;15039;50.830;4.730;2023-01-09T15:20:31;8.50;99.90
27619;DHT22;15039;50.830;4.730;2023-01-09T15:22:58;8.50;99.90
27619;DHT22;15039;50.830;4.730;2023-01-09T15:25:30;8.60;99.90
27619;DHT22;15039;50.830;4.730;2023-01-09T15:27:59;8.50;99.90
27619;DHT22;15039;50.830;4.730;2023-01-09T15:30:33;8.40;99.90
27619;DHT22;15039;50.830;4.730;2023-01-09T15:33:13;8.40;99.90
27619;DHT22;15039;50.830;4.730;2023-01-09T15:35:43;8.40;99.90
27619;DHT22;15039;50.830;4.730;2023-01-09T15:38:30;8.40;99.90
27619;DHT22;15039;50.830;4.730;2023-01-09T15:41:05;8.40;99.90
27619;DHT22;15039;50.830;4.730;2023-01-09T15:43:33;8.30;99.90
27619;DHT22;15039;50.830;4.730;2023-01-09T15:46:01;8.20;99.90
27619;DHT22;15039;50.830;4.730;2023-01-09T15:48:32;8.10;99.90
27619;DHT22;15039;50.830;4.730;2023-01-09T15:53:25;8.10;99.90
27619;DHT22;15039;50.830;4.730;2023-01-09T15:56:11;8.00;99.90
27619;DHT22;15039;50.830;4.730;2023-01-09T15:58:46;8.10;99.90
27619;DHT22;15039;50.830;4.730;2023-01-09T16:01:34;8.10;99.90
27619;DHT22;15039;50.830;4.730;2023-01-09T16:04:12;8.20;99.90
27619;DHT22;15039;50.830;4.730;2023-01-09T16:06:48;8.30;99.90
27619;DHT22;15039;50.830;4.730;2023-01-09T16:11:51;8.30;99.90
27619;DHT22;15039;50.830;4.730;2023-01-09T16:16:46;8.20;99.90
27619;DHT22;15039;50.830;4.730;2023-01-09T16:20:23;8.10;99.90
27619;DHT22;15039;50.830;4.730;2023-01-09T16:22:53;8.10;99.90
27619;DHT22;15039;50.830;4.730;2023-01-09T16:25:31;8.00;99.90
27619;DHT22;15039;50.830;4.730;2023-01-09T16:30:32;7.90;99.90
27619;DHT22;15039;50.830;4.730;2023-01-09T16:32:58;7.90;99.90
27619;DHT22;15039;50.830;4.730;2023-01-09T16:35:26;8.00;99.90
27619;DHT22;15039;50.830;4.730;2023-01-09T16:37:52;8.00;99.90
27619;DHT22;15039;50.830;4.730;2023-01-09T16:42:47;8.10;99.90
27619;DHT22;15039;50.830;4.730;2023-01-09T16:45:37;8.10;99.90
27619;DHT22;15039;50.830;4.730;2023-01-09T16:48:14;8.10;99.90
27619;DHT22;15039;50.830;4.730;2023-01-09T16:50:40;8.20;99.90
27619;DHT22;15039;50.830;4.730;2023-01-09T16:53:22;8.20;99.90
27619;DHT22;15039;50.830;4.730;2023-01-09T16:55:52;8.10;99.90
27619;DHT22;15039;50.830;4.730;2023-01-09T16:58:29;8.10;99.90
27619;DHT22;15039;50.830;4.730;2023-01-09T17:00:58;8.10;99.90
27619;DHT22;15039;50.830;4.730;2023-01-09T17:03:24;8.10;99.90
27619;DHT22;15039;50.830;4.730;2023-01-09T17:05:55;8.00;99.90
27619;DHT22;15039;50.830;4.730;2023-01-09T17:08:26;7.90;99.90
27619;DHT22;15039;50.830;4.730;2023-01-09T17:10:54;7.80;99.90
27619;DHT22;15039;50.830;4.730;2023-01-09T17:13:20;7.90;99.90
27619;DHT22;15039;50.830;4.730;2023-01-09T17:15:46;7.80;99.90
27619;DHT22;15039;50.830;4.730;2023-01-09T17:18:20;7.90;99.90
27619;DHT22;15039;50.830;4.730;2023-01-09T17:20:53;7.90;99.90
27619;DHT22;15039;50.830;4.730;2023-01-09T17:23:20;7.80;99.90
27619;DHT22;15039;50.830;4.730;2023-01-09T17:25:52;7.80;99.90
27619;DHT22;15039;50.830;4.730;2023-01-09T17:28:37;7.80;99.90
27619;DHT22;15039;50.830;4.730;2023-01-09T17:31:06;7.70;99.90
27619;DHT22;15039;50.830;4.730;2023-01-09T17:33:34;7.80;99.90
27619;DHT22;15039;50.830;4.730;2023-01-09T17:36:06;7.70;99.90
27619;DHT22;15039;50.830;4.730;2023-01-09T17:38:40;7.80;99.90
27619;DHT22;15039;50.830;4.730;2023-01-09T17:41:08;7.80;99.90
27619;DHT22;15039;50.830;4.730;2023-01-09T17:43:35;7.90;99.90
27619;DHT22;15039;50.830;4.730;2023-01-09T17:46:01;7.90;99.90
27619;DHT22;15039;50.830;4.730;2023-01-09T17:48:27;8.00;99.90
27619;DHT22;15039;50.830;4.730;2023-01-09T17:50:53;8.00;99.90
27619;DHT22;15039;50.830;4.730;2023-01-09T17:53:18;8.00;99.90
27619;DHT22;15039;50.830;4.730;2023-01-09T17:55:45;7.80;99.90
27619;DHT22;15039;50.830;4.730;2023-01-09T17:58:26;7.10;99.90
27619;DHT22;15039;50.830;4.730;2023-01-09T18:00:55;6.70;99.90
27619;DHT22;15039;50.830;4.730;2023-01-09T18:03:21;6.30;99.90
27619;DHT22;15039;50.830;4.730;2023-01-09T18:05:55;6.20;99.90
27619;DHT22;15039;50.830;4.730;2023-01-09T18:08:21;6.10;99.90
27619;DHT22;15039;50.830;4.730;2023-01-09T18:10:47;6.10;99.90
27619;DHT22;15039;50.830;4.730;2023-01-09T18:13:14;6.10;99.90
27619;DHT22;15039;50.830;4.730;2023-01-09T18:15:41;6.10;99.90
27619;DHT22;15039;50.830;4.730;2023-01-09T18:18:08;6.20;99.90
27619;DHT22;15039;50.830;4.730;2023-01-09T18:20:36;6.40;99.90
27619;DHT22;15039;50.830;4.730;2023-01-09T18:23:02;6.60;99.90
27619;DHT22;15039;50.830;4.730;2023-01-09T18:25:28;6.60;99.90
27619;DHT22;15039;50.830;4.730;2023-01-09T18:27:53;6.80;99.90